createdAt,value
2022-09-15T00:00:06.062Z,60.96
2022-09-15T00:01:06.057Z,60.96
2022-09-15T00:02:06.199Z,61.45
2022-09-15T00:03:06.130Z,61.72
2022-09-15T00:04:06.038Z,61.31
2022-09-15T00:06:06.049Z,62.10
2022-09-15T00:07:06.057Z,61.86
2022-09-15T00:08:06.182Z,62.22
2022-09-15T00:09:06.070Z,61.95
2022-09-15T00:10:06.063Z,61.93
2022-09-15T00:11:06.086Z,61.77
2022-09-15T00:12:06.075Z,62.41
2022-09-15T00:13:06.085Z,62.70
2022-09-15T00:14:06.065Z,62.59
2022-09-15T00:15:06.184Z,62.91
2022-09-15T00:16:06.180Z,63.25
2022-09-15T00:17:06.234Z,62.90
2022-09-15T00:18:06.177Z,62.96
2022-09-15T00:22:06.196Z,62.85
2022-09-15T00:23:06.202Z,63.10
2022-09-15T00:24:06.201Z,62.84
2022-09-15T00:25:06.196Z,62.78
2022-09-15T00:26:06.212Z,62.77
2022-09-15T00:27:06.206Z,62.89
2022-09-15T00:28:06.201Z,62.95
2022-09-15T00:30:06.231Z,62.80
2022-09-15T00:34:06.214Z,62.76
2022-09-15T00:35:06.221Z,62.68
2022-09-15T00:37:06.219Z,62.57
2022-09-15T00:38:06.221Z,62.75
2022-09-15T00:41:06.266Z,63.18
2022-09-15T00:42:06.217Z,63.24
2022-09-15T00:43:06.266Z,63.36
2022-09-15T00:45:06.261Z,63.09
2022-09-15T00:46:06.312Z,63.09
2022-09-15T00:47:18.721Z,63.19
2022-09-15T00:48:06.248Z,62.91
2022-09-15T00:50:06.257Z,63.41
2022-09-15T00:51:06.251Z,63.18
2022-09-15T00:52:06.300Z,63.17
2022-09-15T00:53:06.276Z,63.06
2022-09-15T00:54:06.265Z,63.15
2022-09-15T00:55:06.265Z,62.94
2022-09-15T00:56:06.266Z,63.21
2022-09-15T00:57:06.286Z,62.72
2022-09-15T00:58:06.264Z,63.36
2022-09-15T00:59:06.251Z,63.58
2022-09-15T01:00:06.270Z,63.56
2022-09-15T01:01:06.326Z,63.77
2022-09-15T01:02:06.345Z,63.66
2022-09-15T01:03:06.284Z,63.67
2022-09-15T01:04:06.270Z,63.69
2022-09-15T01:06:06.297Z,64.17
2022-09-15T01:07:06.268Z,64.51
2022-09-15T01:08:06.266Z,64.38
2022-09-15T01:09:09.475Z,64.28
2022-09-15T01:10:06.265Z,64.00
2022-09-15T01:11:06.293Z,64.16
2022-09-15T01:12:06.264Z,64.07
2022-09-15T01:13:06.268Z,64.04
2022-09-15T01:14:06.274Z,63.83
2022-09-15T01:15:06.255Z,63.84
2022-09-15T01:16:06.311Z,64.32
2022-09-15T01:17:06.262Z,64.32
2022-09-15T01:18:06.276Z,64.44
2022-09-15T01:19:06.247Z,64.44
2022-09-15T01:20:06.263Z,64.79
2022-09-15T01:21:06.318Z,64.66
2022-09-15T01:22:06.265Z,64.66
2022-09-15T01:23:06.283Z,64.63
2022-09-15T01:24:06.272Z,64.63
2022-09-15T01:25:06.264Z,64.45
2022-09-15T01:26:06.256Z,64.72
2022-09-15T01:27:18.770Z,64.34
2022-09-15T01:28:06.259Z,64.46
2022-09-15T01:29:06.265Z,64.42
2022-09-15T01:30:06.266Z,64.74
2022-09-15T01:31:06.287Z,64.76
2022-09-15T01:32:06.348Z,64.49
2022-09-15T01:33:06.300Z,64.69
2022-09-15T01:34:06.307Z,63.93
2022-09-15T01:35:06.299Z,64.11
2022-09-15T01:36:06.297Z,63.98
2022-09-15T01:39:06.324Z,64.21
2022-09-15T01:40:06.339Z,64.40
2022-09-15T01:41:06.301Z,64.37
2022-09-15T01:42:06.314Z,64.15
2022-09-15T01:43:06.304Z,64.21
2022-09-15T01:44:06.342Z,64.03
2022-09-15T01:45:06.317Z,63.66
2022-09-15T01:46:09.716Z,63.85
2022-09-15T01:47:06.321Z,63.85
2022-09-15T01:48:06.323Z,63.80
2022-09-15T01:49:06.331Z,63.81
2022-09-15T01:50:06.311Z,63.53
2022-09-15T01:51:06.324Z,63.45
2022-09-15T01:52:06.344Z,63.16
2022-09-15T01:53:06.339Z,63.15
2022-09-15T01:55:06.346Z,63.09
2022-09-15T01:56:06.354Z,62.99
2022-09-15T01:57:06.337Z,63.00
2022-09-15T01:58:06.360Z,63.07
2022-09-15T01:59:06.357Z,63.33
2022-09-15T02:00:06.333Z,63.18
2022-09-15T02:01:06.385Z,63.06
2022-09-15T02:02:06.371Z,62.75
2022-09-15T02:03:06.374Z,62.98
2022-09-15T02:04:06.361Z,62.71
2022-09-15T02:05:06.366Z,62.44
2022-09-15T02:06:06.375Z,62.42
2022-09-15T02:07:06.365Z,62.39
2022-09-15T02:08:06.380Z,62.34
2022-09-15T02:09:06.399Z,62.34
2022-09-15T02:10:06.401Z,62.43
2022-09-15T02:11:06.399Z,62.43
2022-09-15T02:13:06.388Z,62.24
2022-09-15T02:14:06.387Z,62.11
2022-09-15T02:18:06.413Z,62.16
2022-09-15T02:20:06.393Z,62.57
2022-09-15T02:21:06.391Z,62.70
2022-09-15T02:24:06.420Z,62.82
2022-09-15T02:29:06.447Z,62.07
2022-09-15T02:30:06.435Z,62.11
2022-09-15T02:33:06.430Z,62.47
2022-09-15T02:34:06.441Z,61.96
2022-09-15T02:36:06.453Z,61.73
2022-09-15T02:37:06.437Z,61.56
2022-09-15T02:38:06.457Z,61.61
2022-09-15T02:39:06.467Z,61.70
2022-09-15T02:40:06.499Z,61.77
2022-09-15T02:41:06.459Z,61.84
2022-09-15T02:42:06.470Z,61.62
2022-09-15T02:43:06.477Z,62.30
2022-09-15T02:44:06.461Z,62.31
2022-09-15T02:45:06.462Z,62.13
2022-09-15T02:46:06.538Z,62.55
2022-09-15T02:47:06.492Z,62.33
2022-09-15T02:48:06.500Z,62.22
2022-09-15T02:49:06.499Z,63.00
2022-09-15T02:50:06.487Z,62.99
2022-09-15T02:51:06.497Z,63.03
2022-09-15T02:52:06.499Z,63.06
2022-09-15T02:53:06.490Z,62.92
2022-09-15T02:54:06.494Z,62.52
2022-09-15T02:57:06.493Z,62.56
2022-09-15T02:58:06.516Z,62.36
2022-09-15T02:59:06.500Z,62.36
2022-09-15T03:00:10.055Z,62.54
2022-09-15T03:01:06.589Z,62.54
2022-09-15T03:02:06.548Z,62.50
2022-09-15T03:03:06.513Z,62.47
2022-09-15T03:04:06.513Z,62.51
2022-09-15T03:05:06.522Z,62.42
2022-09-15T03:06:06.551Z,62.27
2022-09-15T03:07:06.534Z,62.29
2022-09-15T03:08:06.534Z,61.96
2022-09-15T03:09:06.537Z,61.73
2022-09-15T03:11:06.551Z,61.81
2022-09-15T03:12:06.531Z,61.79
2022-09-15T03:13:06.568Z,61.93
2022-09-15T03:14:06.564Z,61.71
2022-09-15T03:15:06.539Z,61.61
2022-09-15T03:17:06.571Z,61.47
2022-09-15T03:18:06.564Z,61.60
2022-09-15T03:19:06.563Z,61.57
2022-09-15T03:20:06.546Z,61.57
2022-09-15T03:21:06.567Z,61.28
2022-09-15T03:22:06.571Z,61.41
2022-09-15T03:23:06.571Z,61.46
2022-09-15T03:27:06.592Z,61.58
2022-09-15T03:28:06.608Z,61.58
2022-09-15T03:29:06.592Z,61.58
2022-09-15T03:30:06.599Z,61.72
2022-09-15T03:31:06.683Z,61.72
2022-09-15T03:34:06.592Z,61.48
2022-09-15T03:35:06.593Z,61.44
2022-09-15T03:36:06.584Z,61.50
2022-09-15T03:37:10.274Z,61.60
2022-09-15T03:38:06.605Z,61.60
2022-09-15T03:40:06.720Z,61.55
2022-09-15T03:41:06.594Z,61.53
2022-09-15T03:43:06.621Z,61.42
2022-09-15T03:44:06.613Z,61.50
2022-09-15T03:45:06.635Z,61.77
2022-09-15T03:46:06.771Z,62.03
2022-09-15T03:47:06.613Z,62.13
2022-09-15T03:48:06.645Z,61.99
2022-09-15T03:50:06.657Z,61.83
2022-09-15T03:51:06.668Z,61.80
2022-09-15T03:52:06.646Z,61.97
2022-09-15T03:53:06.661Z,61.98
2022-09-15T03:54:06.642Z,62.02
2022-09-15T03:55:06.659Z,61.96
2022-09-15T03:57:06.693Z,61.98
2022-09-15T04:01:06.736Z,61.60
2022-09-15T04:02:06.701Z,61.98
2022-09-15T04:03:06.685Z,62.02
2022-09-15T04:04:06.680Z,61.99
2022-09-15T04:05:06.680Z,61.98
2022-09-15T04:06:06.675Z,61.91
2022-09-15T04:07:06.691Z,61.86
2022-09-15T04:08:06.682Z,61.76
2022-09-15T04:09:06.715Z,61.72
2022-09-15T04:10:06.703Z,62.01
2022-09-15T04:11:06.738Z,61.60
2022-09-15T04:12:06.704Z,61.60
2022-09-15T04:13:06.714Z,61.36
2022-09-15T04:14:10.491Z,61.48
2022-09-15T04:15:06.713Z,61.49
2022-09-15T04:16:06.761Z,61.49
2022-09-15T04:17:06.699Z,61.62
2022-09-15T04:18:06.716Z,61.45
2022-09-15T04:19:06.713Z,61.20
2022-09-15T04:21:06.720Z,61.07
2022-09-15T04:22:06.733Z,61.14
2022-09-15T04:23:06.710Z,61.11
2022-09-15T04:24:06.732Z,61.38
2022-09-15T04:26:06.728Z,61.27
2022-09-15T04:28:06.758Z,61.19
2022-09-15T04:29:06.737Z,61.25
2022-09-15T04:30:06.741Z,61.25
2022-09-15T04:31:06.797Z,61.51
2022-09-15T04:32:06.744Z,61.51
2022-09-15T04:33:06.756Z,61.34
2022-09-15T04:35:06.737Z,61.42
2022-09-15T04:36:06.764Z,61.47
2022-09-15T04:37:06.761Z,61.44
2022-09-15T04:39:06.802Z,61.64
2022-09-15T04:40:06.810Z,61.71
2022-09-15T04:41:06.748Z,61.62
2022-09-15T04:42:06.783Z,61.53
2022-09-15T04:43:06.755Z,61.51
2022-09-15T04:44:06.795Z,61.36
2022-09-15T04:45:06.781Z,61.30
2022-09-15T04:46:06.786Z,61.09
2022-09-15T04:47:06.818Z,61.01
2022-09-15T04:50:06.804Z,61.01
2022-09-15T04:51:10.652Z,60.88
2022-09-15T04:52:09.715Z,60.88
2022-09-15T04:53:06.797Z,60.66
2022-09-15T04:54:06.810Z,60.71
2022-09-15T04:55:06.810Z,60.63
2022-09-15T04:56:06.815Z,60.55
2022-09-15T04:58:06.825Z,60.52
2022-09-15T04:59:06.813Z,60.57
2022-09-15T05:00:06.815Z,60.25
2022-09-15T05:01:06.924Z,60.37
2022-09-15T05:03:06.815Z,60.20
2022-09-15T05:04:06.802Z,59.74
2022-09-15T05:05:06.809Z,60.12
2022-09-15T05:06:06.834Z,60.22
2022-09-15T05:07:06.847Z,60.09
2022-09-15T05:08:06.822Z,60.13
2022-09-15T05:09:10.011Z,59.92
2022-09-15T05:10:06.831Z,59.89
2022-09-15T05:11:06.852Z,59.96
2022-09-15T05:12:06.856Z,59.85
2022-09-15T05:13:06.840Z,59.85
2022-09-15T05:14:06.859Z,59.84
2022-09-15T05:17:06.849Z,59.56
2022-09-15T05:18:06.871Z,59.44
2022-09-15T05:19:06.860Z,59.44
2022-09-15T05:20:06.861Z,59.38
2022-09-15T05:22:06.877Z,59.45
2022-09-15T05:23:06.869Z,59.33
2022-09-15T05:24:06.892Z,59.19
2022-09-15T05:26:06.889Z,59.10
2022-09-15T05:27:06.879Z,59.12
2022-09-15T05:28:10.879Z,58.90
2022-09-15T05:29:06.916Z,59.00
2022-09-15T05:30:35.209Z,59.00
2022-09-15T05:32:06.909Z,59.12
2022-09-15T05:33:06.895Z,59.27
2022-09-15T05:34:06.897Z,59.13
2022-09-15T05:35:06.914Z,59.02
2022-09-15T05:36:06.917Z,59.00
2022-09-15T05:38:06.921Z,58.95
2022-09-15T05:39:06.927Z,59.05
2022-09-15T05:41:06.923Z,58.71
2022-09-15T05:42:06.942Z,58.89
2022-09-15T05:43:06.946Z,58.87
2022-09-15T05:46:07.029Z,58.77
2022-09-15T05:48:06.946Z,58.52
2022-09-15T05:49:06.990Z,58.61
2022-09-15T05:50:06.942Z,58.61
2022-09-15T05:52:06.969Z,58.68
2022-09-15T05:53:06.965Z,58.68
2022-09-15T05:54:06.978Z,58.74
2022-09-15T05:55:06.962Z,58.74
2022-09-15T05:57:06.988Z,58.44
2022-09-15T05:58:06.968Z,58.44
2022-09-15T05:59:06.968Z,58.47
2022-09-15T06:00:06.968Z,58.59
2022-09-15T06:01:06.983Z,58.57
2022-09-15T06:02:07.073Z,58.57
2022-09-15T06:03:07.204Z,58.57
2022-09-15T06:04:06.986Z,58.57
2022-09-15T06:05:11.098Z,58.58
2022-09-15T06:06:07.000Z,58.58
2022-09-15T06:07:07.006Z,58.57
2022-09-15T06:08:07.007Z,58.57
2022-09-15T06:09:07.003Z,58.56
2022-09-15T06:10:06.990Z,58.67
2022-09-15T06:11:06.998Z,58.55
2022-09-15T06:12:07.005Z,58.54
2022-09-15T06:14:07.021Z,58.55
2022-09-15T06:15:07.002Z,58.63
2022-09-15T06:16:07.090Z,58.63
2022-09-15T06:19:07.031Z,58.68
2022-09-15T06:22:07.041Z,58.62
2022-09-15T06:23:07.117Z,58.62
2022-09-15T06:24:07.307Z,58.50
2022-09-15T06:26:07.049Z,58.43
2022-09-15T06:27:07.026Z,58.37
2022-09-15T06:28:07.068Z,58.31
2022-09-15T06:29:07.028Z,58.31
2022-09-15T06:30:07.037Z,58.22
2022-09-15T06:31:07.067Z,58.50
2022-09-15T06:34:07.049Z,58.35
2022-09-15T06:35:07.071Z,58.26
2022-09-15T06:36:07.085Z,58.26
2022-09-15T06:39:07.083Z,58.41
2022-09-15T06:40:07.123Z,58.28
2022-09-15T06:41:07.089Z,58.43
2022-09-15T06:42:13.827Z,58.66
2022-09-15T06:46:07.138Z,58.89
2022-09-15T06:48:23.343Z,58.90
2022-09-15T06:49:07.110Z,58.85
2022-09-15T06:50:07.102Z,58.85
2022-09-15T06:51:07.107Z,58.67
2022-09-15T06:52:07.118Z,58.71
2022-09-15T06:53:07.111Z,58.57
2022-09-15T06:54:07.107Z,58.44
2022-09-15T06:56:07.124Z,58.42
2022-09-15T06:57:07.126Z,58.42
2022-09-15T06:58:07.135Z,58.45
2022-09-15T07:00:07.157Z,58.50
2022-09-15T07:01:07.132Z,58.50
2022-09-15T07:02:07.246Z,58.53
2022-09-15T07:03:07.257Z,58.53
2022-09-15T07:04:07.115Z,58.33
2022-09-15T07:05:07.218Z,58.13
2022-09-15T07:06:07.184Z,58.22
2022-09-15T07:07:07.155Z,58.13
2022-09-15T07:08:07.156Z,58.13
2022-09-15T07:10:07.161Z,57.92
2022-09-15T07:11:07.178Z,58.24
2022-09-15T07:14:07.157Z,58.02
2022-09-15T07:15:07.226Z,58.04
2022-09-15T07:16:07.166Z,58.04
2022-09-15T07:17:07.174Z,58.13
2022-09-15T07:18:07.167Z,58.14
2022-09-15T07:20:07.169Z,58.05
2022-09-15T07:21:07.204Z,58.05
2022-09-15T07:22:07.175Z,58.10
2022-09-15T07:23:07.162Z,58.10
2022-09-15T07:24:07.715Z,58.22
2022-09-15T07:25:07.173Z,58.22
2022-09-15T07:26:07.200Z,58.36
2022-09-15T07:27:07.177Z,58.55
2022-09-15T07:29:07.213Z,58.39
2022-09-15T07:30:07.218Z,59.11
2022-09-15T07:31:07.205Z,59.11
2022-09-15T07:32:07.249Z,59.01
2022-09-15T07:35:07.247Z,59.15
2022-09-15T07:36:07.208Z,59.15
2022-09-15T07:37:07.230Z,59.30
2022-09-15T07:38:07.254Z,59.44
2022-09-15T07:39:07.225Z,59.44
2022-09-15T07:40:07.337Z,60.09
2022-09-15T07:41:07.251Z,60.06
2022-09-15T07:42:07.237Z,60.03
2022-09-15T07:44:07.241Z,60.26
2022-09-15T07:45:07.261Z,60.67
2022-09-15T07:46:07.342Z,60.88
2022-09-15T07:47:07.262Z,60.42
2022-09-15T07:48:07.263Z,60.54
2022-09-15T07:49:07.290Z,61.11
2022-09-15T07:50:07.269Z,61.11
2022-09-15T07:51:07.252Z,60.71
2022-09-15T07:52:07.265Z,60.70
2022-09-15T07:53:07.257Z,60.93
2022-09-15T07:54:07.272Z,61.16
2022-09-15T07:55:07.277Z,60.74
2022-09-15T07:57:07.305Z,61.05
2022-09-15T07:58:07.263Z,61.05
2022-09-15T07:59:07.290Z,61.27
2022-09-15T08:00:07.292Z,61.10
2022-09-15T08:01:07.378Z,61.22
2022-09-15T08:02:07.469Z,60.90
2022-09-15T08:03:07.282Z,60.90
2022-09-15T08:04:07.294Z,60.81
2022-09-15T08:05:07.304Z,61.02
2022-09-15T08:07:07.294Z,61.15
2022-09-15T08:08:07.296Z,61.50
2022-09-15T08:09:07.297Z,61.50
2022-09-15T08:11:07.341Z,61.75
2022-09-15T08:13:07.315Z,61.94
2022-09-15T08:14:07.298Z,62.04
2022-09-15T08:15:07.318Z,62.11
2022-09-15T08:16:07.369Z,62.29
2022-09-15T08:17:11.363Z,62.43
2022-09-15T08:18:07.331Z,62.43
2022-09-15T08:19:07.316Z,62.49
2022-09-15T08:20:07.353Z,62.35
2022-09-15T08:21:07.329Z,62.35
2022-09-15T08:22:07.349Z,62.35
2022-09-15T08:23:07.368Z,62.24
2022-09-15T08:24:07.315Z,62.24
2022-09-15T08:25:07.381Z,62.24
2022-09-15T08:26:10.624Z,62.30
2022-09-15T08:27:07.362Z,62.30
2022-09-15T08:28:07.360Z,62.47
2022-09-15T08:29:07.373Z,62.47
2022-09-15T08:30:07.374Z,62.55
2022-09-15T08:31:07.450Z,62.55
2022-09-15T08:32:07.382Z,62.49
2022-09-15T08:33:11.658Z,62.62
2022-09-15T08:34:07.385Z,62.51
2022-09-15T08:35:07.388Z,62.26
2022-09-15T08:36:07.404Z,62.26
2022-09-15T08:37:07.359Z,62.26
2022-09-15T08:38:07.402Z,62.75
2022-09-15T08:39:07.408Z,62.75
2022-09-15T08:40:07.418Z,62.76
2022-09-15T08:43:07.446Z,62.65
2022-09-15T08:48:07.415Z,62.54
2022-09-15T08:49:07.417Z,62.78
2022-09-15T08:50:07.400Z,62.78
2022-09-15T08:52:07.444Z,62.72
2022-09-15T08:53:07.402Z,62.72
2022-09-15T08:54:07.413Z,62.56
2022-09-15T08:55:07.428Z,62.57
2022-09-15T08:56:09.883Z,61.87
2022-09-15T08:57:07.422Z,61.87
2022-09-15T08:58:07.429Z,62.06
2022-09-15T08:59:07.444Z,62.24
2022-09-15T09:00:07.427Z,62.24
2022-09-15T09:02:07.549Z,62.43
2022-09-15T09:03:07.564Z,62.43
2022-09-15T09:04:07.436Z,62.53
2022-09-15T09:05:07.456Z,61.86
2022-09-15T09:07:07.499Z,61.45
2022-09-15T09:08:07.459Z,61.51
2022-09-15T09:09:07.444Z,61.51
2022-09-15T09:10:11.858Z,61.75
2022-09-15T09:11:07.451Z,61.63
2022-09-15T09:12:07.481Z,61.63
2022-09-15T09:13:07.458Z,61.67
2022-09-15T09:14:07.470Z,61.65
2022-09-15T09:15:07.482Z,61.94
2022-09-15T09:16:07.559Z,61.99
2022-09-15T09:17:07.504Z,61.99
2022-09-15T09:18:07.502Z,61.99
2022-09-15T09:19:07.467Z,61.99
2022-09-15T09:21:07.478Z,61.67
2022-09-15T09:22:07.558Z,61.23
2022-09-15T09:23:07.496Z,61.52
2022-09-15T09:24:07.492Z,62.04
2022-09-15T09:25:25.870Z,62.54
2022-09-15T09:26:10.357Z,62.75
2022-09-15T09:27:07.535Z,62.85
2022-09-15T09:28:07.528Z,63.08
2022-09-15T09:29:07.501Z,63.08
2022-09-15T09:30:07.511Z,63.17
2022-09-15T09:31:07.615Z,62.87
2022-09-15T09:33:07.531Z,62.83
2022-09-15T09:34:07.518Z,62.88
2022-09-15T09:35:09.045Z,62.35
2022-09-15T09:36:07.511Z,62.35
2022-09-15T09:37:07.559Z,62.76
2022-09-15T09:38:07.608Z,63.43
2022-09-15T09:39:07.537Z,63.40
2022-09-15T09:40:07.612Z,63.40
2022-09-15T09:41:07.562Z,64.86
2022-09-15T09:42:07.565Z,65.21
2022-09-15T09:43:07.734Z,65.08
2022-09-15T09:44:07.569Z,65.16
2022-09-15T09:45:07.562Z,65.84
2022-09-15T09:46:07.623Z,65.76
2022-09-15T09:47:11.988Z,65.60
2022-09-15T09:48:07.581Z,65.60
2022-09-15T09:49:07.610Z,65.46
2022-09-15T09:50:07.581Z,65.46
2022-09-15T09:51:07.571Z,65.21
2022-09-15T09:52:07.571Z,65.01
2022-09-15T09:53:07.635Z,65.11
2022-09-15T09:54:07.601Z,65.02
2022-09-15T09:55:07.573Z,65.02
2022-09-15T09:57:07.600Z,64.65
2022-09-15T09:58:07.626Z,64.65
2022-09-15T10:01:07.648Z,64.51
2022-09-15T10:02:07.592Z,64.51
2022-09-15T10:03:07.659Z,64.18
2022-09-15T10:04:07.594Z,64.18
2022-09-15T10:05:07.717Z,64.10
2022-09-15T10:07:07.611Z,64.37
2022-09-15T10:08:07.641Z,64.68
2022-09-15T10:09:07.600Z,64.68
2022-09-15T10:10:07.649Z,64.66
2022-09-15T10:11:07.606Z,64.66
2022-09-15T10:12:07.626Z,64.42
2022-09-15T10:13:07.663Z,63.75
2022-09-15T10:14:07.635Z,64.62
2022-09-15T10:15:07.626Z,64.62
2022-09-15T10:16:07.655Z,64.89
2022-09-15T10:17:07.737Z,64.68
2022-09-15T10:18:07.657Z,64.68
2022-09-15T10:19:07.629Z,64.64
2022-09-15T10:20:07.667Z,65.28
2022-09-15T10:21:07.651Z,64.75
2022-09-15T10:23:07.718Z,65.33
2022-09-15T10:24:13.581Z,65.24
2022-09-15T10:25:07.655Z,65.24
2022-09-15T10:26:07.664Z,64.93
2022-09-15T10:27:07.642Z,64.93
2022-09-15T10:28:07.692Z,64.83
2022-09-15T10:29:09.006Z,65.08
2022-09-15T10:30:07.767Z,65.22
2022-09-15T10:31:07.678Z,64.72
2022-09-15T10:32:07.776Z,64.55
2022-09-15T10:33:07.843Z,65.06
2022-09-15T10:34:07.686Z,65.03
2022-09-15T10:35:07.671Z,65.03
2022-09-15T10:36:07.682Z,65.16
2022-09-15T10:37:07.711Z,65.32
2022-09-15T10:38:07.741Z,64.89
2022-09-15T10:39:07.682Z,64.89
2022-09-15T10:40:07.814Z,64.62
2022-09-15T10:41:07.691Z,64.62
2022-09-15T10:42:07.924Z,64.89
2022-09-15T10:43:08.027Z,64.63
2022-09-15T10:44:07.883Z,64.63
2022-09-15T10:45:07.821Z,64.44
2022-09-15T10:46:08.004Z,63.81
2022-09-15T10:47:07.796Z,63.54
2022-09-15T10:48:07.914Z,63.75
2022-09-15T10:49:07.836Z,63.16
2022-09-15T10:50:07.860Z,63.38
2022-09-15T10:51:07.884Z,63.26
2022-09-15T10:52:07.871Z,62.43
2022-09-15T10:53:07.859Z,62.59
2022-09-15T10:54:07.878Z,62.16
2022-09-15T10:55:07.873Z,62.02
2022-09-15T10:56:07.887Z,62.40
2022-09-15T10:57:07.911Z,62.21
2022-09-15T10:58:08.055Z,61.75
2022-09-15T10:59:07.947Z,61.65
2022-09-15T11:00:07.929Z,61.26
2022-09-15T11:01:12.468Z,60.82
2022-09-15T11:02:07.929Z,60.87
2022-09-15T11:03:07.991Z,61.01
2022-09-15T11:04:07.900Z,60.97
2022-09-15T11:06:07.940Z,61.48
2022-09-15T11:07:07.932Z,61.63
2022-09-15T11:08:07.869Z,61.63
2022-09-15T11:09:07.965Z,62.11
2022-09-15T11:10:07.966Z,62.15
2022-09-15T11:11:07.968Z,61.89
2022-09-15T11:12:07.957Z,61.89
2022-09-15T11:14:07.992Z,62.08
2022-09-15T11:16:07.923Z,62.21
2022-09-15T11:17:07.922Z,62.29
2022-09-15T11:18:07.931Z,61.77
2022-09-15T11:19:07.948Z,61.71
2022-09-15T11:20:08.004Z,61.64
2022-09-15T11:21:07.903Z,61.93
2022-09-15T11:22:07.949Z,62.21
2022-09-15T11:23:07.972Z,62.75
2022-09-15T11:24:07.955Z,63.01
2022-09-15T11:25:07.985Z,63.17
2022-09-15T11:26:07.997Z,63.49
2022-09-15T11:27:07.813Z,63.71
2022-09-15T11:28:07.816Z,63.71
2022-09-15T11:29:07.827Z,64.15
2022-09-15T11:30:07.833Z,64.20
2022-09-15T11:31:07.859Z,64.20
2022-09-15T11:32:07.844Z,64.27
2022-09-15T11:33:07.820Z,63.68
2022-09-15T11:35:07.857Z,63.88
2022-09-15T11:36:07.846Z,63.88
2022-09-15T11:37:07.838Z,64.10
2022-09-15T11:40:07.999Z,64.29
2022-09-15T11:41:07.862Z,64.29
2022-09-15T11:42:07.855Z,64.21
2022-09-15T11:43:07.844Z,64.11
2022-09-15T11:44:07.847Z,64.26
2022-09-15T11:45:07.864Z,64.32
2022-09-15T11:46:07.948Z,64.45
2022-09-15T11:47:07.874Z,64.29
2022-09-15T11:48:07.879Z,64.39
2022-09-15T11:49:07.874Z,64.53
2022-09-15T11:50:07.946Z,64.53
2022-09-15T11:51:07.892Z,64.44
2022-09-15T11:52:07.877Z,64.24
2022-09-15T11:53:07.876Z,64.05
2022-09-15T11:54:07.877Z,64.05
2022-09-15T11:55:07.881Z,63.82
2022-09-15T11:56:07.897Z,62.12
2022-09-15T11:57:07.893Z,62.12
2022-09-15T11:58:07.891Z,63.02
2022-09-15T11:59:07.891Z,63.02
2022-09-15T12:00:07.971Z,63.04
2022-09-15T12:01:07.931Z,63.50
2022-09-15T12:02:07.948Z,63.50
2022-09-15T12:03:07.929Z,63.48
2022-09-15T12:04:07.918Z,64.01
2022-09-15T12:05:07.912Z,63.79
2022-09-15T12:06:07.941Z,63.79
2022-09-15T12:07:09.905Z,63.43
2022-09-15T12:08:07.932Z,63.43
2022-09-15T12:09:07.935Z,63.48
2022-09-15T12:10:07.928Z,63.66
2022-09-15T12:11:07.942Z,63.77
2022-09-15T12:12:07.927Z,63.66
2022-09-15T12:13:07.933Z,63.66
2022-09-15T12:14:07.923Z,63.96
2022-09-15T12:15:12.707Z,64.74
2022-09-15T12:16:07.977Z,64.91
2022-09-15T12:17:07.981Z,64.60
2022-09-15T12:18:21.355Z,64.86
2022-09-15T12:20:07.957Z,64.44
2022-09-15T12:21:07.945Z,64.36
2022-09-15T12:22:07.952Z,64.75
2022-09-15T12:23:07.960Z,64.75
2022-09-15T12:24:07.958Z,64.79
2022-09-15T12:25:07.965Z,64.88
2022-09-15T12:26:07.958Z,64.55
2022-09-15T12:27:07.986Z,65.23
2022-09-15T12:28:07.973Z,65.23
2022-09-15T12:29:07.992Z,65.16
2022-09-15T12:30:07.964Z,65.16
2022-09-15T12:31:08.081Z,65.15
2022-09-15T12:32:07.983Z,65.22
2022-09-15T12:33:07.977Z,65.39
2022-09-15T12:34:07.984Z,65.29
2022-09-15T12:36:07.999Z,64.99
2022-09-15T12:37:08.018Z,64.96
2022-09-15T12:38:08.008Z,64.96
2022-09-15T12:39:08.003Z,65.28
2022-09-15T12:41:08.008Z,65.55
2022-09-15T12:42:08.012Z,65.73
2022-09-15T12:43:08.019Z,65.64
2022-09-15T12:44:08.029Z,65.83
2022-09-15T12:45:08.013Z,64.43
2022-09-15T12:46:08.211Z,65.27
2022-09-15T12:48:08.029Z,65.34
2022-09-15T12:49:08.025Z,65.99
2022-09-15T12:50:08.022Z,65.99
2022-09-15T12:51:08.061Z,66.53
2022-09-15T12:52:12.910Z,66.14
2022-09-15T12:53:08.043Z,65.79
2022-09-15T12:54:08.018Z,65.79
2022-09-15T12:55:08.027Z,65.92
2022-09-15T12:56:08.045Z,65.39
2022-09-15T12:57:08.028Z,64.78
2022-09-15T12:58:08.030Z,65.05
2022-09-15T12:59:08.068Z,65.09
2022-09-15T13:00:08.048Z,65.09
2022-09-15T13:01:17.871Z,64.70
2022-09-15T13:02:08.113Z,64.70
2022-09-15T13:03:08.122Z,64.84
2022-09-15T13:04:08.056Z,64.99
2022-09-15T13:05:08.052Z,64.52
2022-09-15T13:06:08.087Z,63.48
2022-09-15T13:07:09.784Z,63.48
2022-09-15T13:08:08.077Z,63.51
2022-09-15T13:09:08.081Z,63.47
2022-09-15T13:10:08.103Z,63.39
2022-09-15T13:11:08.076Z,63.39
2022-09-15T13:13:08.093Z,62.94
2022-09-15T13:14:08.104Z,63.09
2022-09-15T13:15:08.124Z,62.59
2022-09-15T13:16:08.162Z,62.28
2022-09-15T13:17:08.104Z,62.28
2022-09-15T13:18:08.122Z,62.15
2022-09-15T13:19:08.129Z,61.88
2022-09-15T13:20:08.127Z,62.34
2022-09-15T13:22:08.105Z,62.20
2022-09-15T13:23:08.126Z,62.20
2022-09-15T13:24:08.137Z,62.63
2022-09-15T13:25:08.135Z,62.46
2022-09-15T13:26:08.133Z,62.46
2022-09-15T13:27:08.110Z,61.90
2022-09-15T13:28:08.151Z,62.11
2022-09-15T13:29:13.058Z,61.87
2022-09-15T13:30:08.152Z,61.73
2022-09-15T13:31:08.168Z,61.73
2022-09-15T13:32:08.132Z,61.47
2022-09-15T13:33:08.141Z,61.16
2022-09-15T13:35:13.038Z,61.17
2022-09-15T13:36:08.139Z,61.17
2022-09-15T13:39:08.159Z,60.83
2022-09-15T13:40:08.251Z,61.04
2022-09-15T13:41:08.146Z,60.72
2022-09-15T13:42:08.166Z,61.07
2022-09-15T13:43:08.160Z,61.07
2022-09-15T13:44:08.174Z,60.92
2022-09-15T13:45:08.189Z,59.81
2022-09-15T13:46:08.211Z,59.72
2022-09-15T13:47:08.177Z,59.04
2022-09-15T13:48:08.165Z,59.04
2022-09-15T13:49:08.198Z,59.00
2022-09-15T13:50:08.167Z,59.00
2022-09-15T13:51:08.188Z,59.23
2022-09-15T13:52:08.177Z,59.23
2022-09-15T13:53:08.194Z,59.89
2022-09-15T13:54:08.178Z,59.79
2022-09-15T13:55:08.216Z,60.79
2022-09-15T13:56:08.222Z,60.12
2022-09-15T13:57:08.201Z,60.12
2022-09-15T13:59:12.830Z,59.35
2022-09-15T14:00:13.669Z,59.28
2022-09-15T14:01:08.234Z,60.38
2022-09-15T14:02:08.479Z,60.01
2022-09-15T14:03:08.318Z,60.17
2022-09-15T14:04:08.215Z,60.17
2022-09-15T14:06:13.237Z,61.39
2022-09-15T14:07:08.265Z,60.43
2022-09-15T14:08:08.264Z,59.40
2022-09-15T14:09:08.251Z,58.88
2022-09-15T14:10:08.246Z,58.15
2022-09-15T14:11:08.241Z,58.15
2022-09-15T14:14:08.238Z,59.83
2022-09-15T14:16:11.841Z,60.20
2022-09-15T14:17:08.323Z,60.20
2022-09-15T14:18:08.247Z,59.93
2022-09-15T14:19:08.271Z,59.88
2022-09-15T14:20:08.276Z,59.88
2022-09-15T14:21:08.278Z,60.02
2022-09-15T14:22:08.274Z,60.02
2022-09-15T14:23:08.265Z,59.51
2022-09-15T14:24:08.280Z,58.77
2022-09-15T14:25:08.282Z,58.38
2022-09-15T14:26:08.265Z,58.38
2022-09-15T14:27:08.343Z,57.86
2022-09-15T14:28:08.298Z,57.86
2022-09-15T14:29:08.316Z,57.41
2022-09-15T14:30:08.286Z,57.47
2022-09-15T14:31:08.318Z,57.52
2022-09-15T14:32:08.335Z,57.52
2022-09-15T14:33:08.277Z,57.45
2022-09-15T14:34:08.301Z,57.79
2022-09-15T14:35:08.297Z,57.79
2022-09-15T14:36:08.311Z,57.82
2022-09-15T14:37:08.303Z,57.69
2022-09-15T14:38:08.298Z,57.69
2022-09-15T14:39:08.306Z,57.62
2022-09-15T14:40:08.584Z,57.17
2022-09-15T14:41:08.298Z,57.17
2022-09-15T14:42:08.329Z,57.10
2022-09-15T14:43:17.471Z,56.04
2022-09-15T14:44:08.322Z,56.47
2022-09-15T14:46:09.087Z,56.44
2022-09-15T14:47:08.328Z,56.48
2022-09-15T14:48:08.338Z,56.48
2022-09-15T14:49:08.332Z,55.85
2022-09-15T14:50:08.327Z,56.39
2022-09-15T14:51:08.350Z,56.22
2022-09-15T14:52:08.345Z,56.10
2022-09-15T14:53:08.336Z,55.70
2022-09-15T14:54:08.383Z,55.48
2022-09-15T14:56:08.585Z,55.45
2022-09-15T14:57:08.343Z,55.49
2022-09-15T14:58:08.371Z,55.67
2022-09-15T14:59:08.384Z,55.57
2022-09-15T15:00:08.343Z,55.58
2022-09-15T15:01:08.390Z,55.26
2022-09-15T15:02:08.430Z,55.06
2022-09-15T15:03:08.406Z,55.68
2022-09-15T15:05:08.397Z,56.06
2022-09-15T15:06:28.392Z,55.81
2022-09-15T15:07:08.367Z,55.71